Time;durP1;ratioP1;P1;durP2;ratioP2;P2;SDS_P1;SDS_P2;PMS_P1;PMS_P2;Temp;Humidity;BMP_temperature;BMP_pressure;BME280_temperature;BME280_humidity;BME280_pressure;Samples;Min_cycle;Max_cycle;Signal;HPM_P1;HPM_P2
2023/12/03 00:01:22;;;;;;;17.60;3.20;;;;;;;16.69;41.60;93631.69;4170324;28;20061;-68
2023/12/03 00:03:24;;;;;;;16.20;2.55;;;;;;;16.66;41.86;93654.09;4176670;28;20069;-66
2023/12/03 00:05:26;;;;;;;23.13;3.58;;;;;;;16.64;41.96;93661.44;4171216;28;20053;-67
2023/12/03 00:07:29;;;;;;;18.58;3.20;;;;;;;16.64;42.18;93658.00;4181029;28;20136;-70
2023/12/03 00:09:31;;;;;;;16.33;3.30;;;;;;;16.60;41.91;93657.63;4178121;28;20072;-67
2023/12/03 00:11:33;;;;;;;17.42;3.47;;;;;;;16.64;42.39;93658.00;4171397;28;20305;-66
2023/12/03 00:13:35;;;;;;;14.85;3.47;;;;;;;16.54;42.33;93662.00;4179688;28;20072;-69
2023/12/03 00:15:37;;;;;;;13.50;3.70;;;;;;;16.57;42.32;93679.25;4180892;28;20102;-68
2023/12/03 00:17:39;;;;;;;14.65;3.00;;;;;;;16.59;42.23;93656.84;4178075;28;20581;-68
2023/12/03 00:19:41;;;;;;;12.77;2.90;;;;;;;16.59;42.51;93669.25;4179538;28;20139;-67
2023/12/03 00:21:43;;;;;;;23.63;3.55;;;;;;;16.58;42.60;93668.44;4172109;28;20098;-66
2023/12/03 00:23:44;;;;;;;17.90;3.08;;;;;;;16.61;42.46;93672.47;4179211;28;20109;-69
2023/12/03 00:25:46;;;;;;;14.55;3.03;;;;;;;16.61;42.59;93679.63;4180096;28;20262;-68
2023/12/03 00:27:48;;;;;;;13.63;2.85;;;;;;;16.54;42.76;93663.81;4179029;28;20365;-67
2023/12/03 00:29:50;;;;;;;19.25;4.15;;;;;;;16.51;42.89;93680.13;4180388;28;20037;-67
2023/12/03 00:31:52;;;;;;;18.45;3.90;;;;;;;16.50;43.07;93665.28;4180380;28;20053;-69
2023/12/03 00:33:54;;;;;;;14.00;2.70;;;;;;;16.51;43.02;93680.13;4162028;28;20129;-68
2023/12/03 00:35:59;;;;;;;14.43;3.33;;;;;;;16.46;43.03;93672.84;4168376;28;20481;-67
2023/12/03 00:38:01;;;;;;;16.58;3.70;;;;;;;16.49;43.15;93661.03;4167563;28;20119;-67
2023/12/03 00:40:03;;;;;;;16.83;3.40;;;;;;;16.51;43.15;93669.53;4171147;28;20053;-68
2023/12/03 00:42:05;;;;;;;21.35;3.50;;;;;;;16.42;43.24;93684.09;4169387;28;20049;-67
2023/12/03 00:44:06;;;;;;;21.23;2.85;;;;;;;16.45;43.30;93665.13;4175387;28;20061;-68
2023/12/03 00:46:08;;;;;;;18.35;3.33;;;;;;;16.46;43.10;93691.34;4169376;28;20085;-68
2023/12/03 00:48:10;;;;;;;18.05;3.25;;;;;;;16.46;43.41;93678.13;4177129;28;20045;-68
2023/12/03 00:50:12;;;;;;;21.80;4.78;;;;;;;16.41;43.44;93698.31;4176918;28;20075;-68
2023/12/03 00:52:14;;;;;;;25.00;3.33;;;;;;;16.43;43.07;93701.53;4170794;28;20056;-67
2023/12/03 00:54:17;;;;;;;18.70;3.67;;;;;;;16.46;43.08;93704.56;4173469;28;20058;-69
2023/12/03 00:56:18;;;;;;;25.13;3.50;;;;;;;16.51;43.17;93706.56;4174223;28;20138;-67
2023/12/03 00:58:21;;;;;;;19.63;3.30;;;;;;;16.45;43.28;93702.13;4172978;28;20056;-69
2023/12/03 01:00:23;;;;;;;14.55;3.03;;;;;;;16.54;43.31;93716.69;4176628;28;20040;-68
2023/12/03 01:02:25;;;;;;;21.60;3.42;;;;;;;16.57;43.18;93713.59;4176376;28;20077;-68
2023/12/03 01:04:26;;;;;;;20.08;3.35;;;;;;;16.56;43.06;93714.63;4176225;28;20045;-70
2023/12/03 01:06:29;;;;;;;26.23;3.92;;;;;;;16.54;43.50;93721.97;4173860;28;20077;-66
2023/12/03 01:08:31;;;;;;;16.02;3.40;;;;;;;16.50;43.47;93720.81;4176330;28;20520;-69
2023/12/03 01:10:33;;;;;;;16.90;3.08;;;;;;;16.50;43.52;93715.53;4171553;28;20468;-68
2023/12/03 01:12:35;;;;;;;19.30;3.08;;;;;;;16.51;43.63;93715.28;4173869;28;20399;-68
2023/12/03 01:14:37;;;;;;;24.40;3.80;;;;;;;16.51;43.59;93717.13;4178072;28;20045;-67
2023/12/03 01:16:39;;;;;;;21.67;3.10;;;;;;;16.52;43.39;93714.28;4179656;28;20056;-68
2023/12/03 01:18:41;;;;;;;19.20;3.53;;;;;;;16.51;43.84;93725.84;4194417;28;20079;-68
2023/12/03 01:20:43;;;;;;;19.73;3.30;;;;;;;16.55;43.80;93718.31;4172376;28;20037;-68
2023/12/03 01:22:45;;;;;;;23.25;4.18;;;;;;;16.55;43.63;93728.88;4176492;28;20084;-68
2023/12/03 01:24:47;;;;;;;19.95;3.45;;;;;;;16.50;43.54;93729.53;4174418;28;20471;-67
2023/12/03 01:26:49;;;;;;;19.35;3.83;;;;;;;16.56;43.27;93727.84;4178118;28;20056;-66
2023/12/03 01:28:52;;;;;;;24.85;3.38;;;;;;;16.59;43.67;93732.72;4179455;28;20045;-66
2023/12/03 01:30:54;;;;;;;21.77;3.25;;;;;;;16.58;43.72;93744.28;4167484;28;20473;-68
2023/12/03 01:32:56;;;;;;;16.80;3.15;;;;;;;16.56;43.88;93738.41;4165848;28;20412;-68
2023/12/03 01:34:58;;;;;;;18.33;3.90;;;;;;;16.60;43.43;93726.38;4175419;28;20417;-68
2023/12/03 01:37:00;;;;;;;17.25;3.13;;;;;;;16.64;43.65;93730.19;4175459;28;20049;-67
2023/12/03 01:39:02;;;;;;;16.75;3.53;;;;;;;16.66;43.68;93724.69;4166537;28;20042;-69
2023/12/03 01:41:04;;;;;;;18.85;3.10;;;;;;;16.60;44.03;93736.94;4171333;28;20114;-68
2023/12/03 01:43:06;;;;;;;18.38;3.33;;;;;;;16.56;43.81;93715.44;4169274;28;20465;-66
2023/12/03 01:45:08;;;;;;;17.70;2.90;;;;;;;16.53;43.50;93723.81;4177776;28;20543;-67
2023/12/03 01:47:10;;;;;;;17.95;2.75;;;;;;;16.52;43.82;93729.31;4169480;28;20162;-70
2023/12/03 01:49:12;;;;;;;21.00;3.28;;;;;;;16.53;44.08;93737.03;4171451;28;20056;-69
2023/12/03 01:51:14;;;;;;;24.15;3.47;;;;;;;16.54;44.28;93735.19;4173914;28;20052;-68
2023/12/03 01:53:17;;;;;;;16.80;3.28;;;;;;;16.52;44.04;93722.19;4178025;28;20076;-68
2023/12/03 01:55:19;;;;;;;18.70;3.28;;;;;;;16.55;44.21;93720.94;4178088;28;20061;-66
2023/12/03 01:57:21;;;;;;;28.52;3.28;;;;;;;16.52;44.52;93729.31;4177345;28;20099;-67
2023/12/03 01:59:24;;;;;;;21.85;2.95;;;;;;;16.51;44.62;93727.69;4178397;28;20412;-68
2023/12/03 02:01:26;;;;;;;20.17;3.90;;;;;;;16.42;44.40;93723.72;4178785;28;20048;-67
2023/12/03 02:03:28;;;;;;;22.48;3.45;;;;;;;16.48;44.22;93728.16;4174371;28;20084;-70
2023/12/03 02:05:30;;;;;;;25.90;3.60;;;;;;;16.53;43.47;93728.28;4178391;28;20045;-70
2023/12/03 02:07:32;;;;;;;19.05;3.25;;;;;;;16.53;44.37;93736.22;4177728;28;20056;-69
2023/12/03 02:09:34;;;;;;;22.58;4.28;;;;;;;16.55;44.19;93716.47;4168424;28;20504;-67
2023/12/03 02:11:36;;;;;;;20.17;3.28;;;;;;;16.56;43.99;93715.44;4176039;28;20064;-68
2023/12/03 02:13:39;;;;;;;22.95;3.55;;;;;;;16.58;44.00;93717.84;4175925;28;20095;-69
2023/12/03 02:15:41;;;;;;;12.17;2.87;;;;;;;16.51;44.30;93717.13;4169720;28;20045;-69
2023/12/03 02:17:43;;;;;;;24.65;3.97;;;;;;;16.49;44.81;93713.91;4184362;28;20040;-68
2023/12/03 02:19:45;;;;;;;18.05;3.53;;;;;;;16.55;44.60;93694.50;4166331;28;20499;-67
2023/12/03 02:21:46;;;;;;;23.45;3.70;;;;;;;16.47;44.60;93713.31;4173196;28;20110;-68
2023/12/03 02:23:48;;;;;;;13.60;2.90;;;;;;;16.46;44.16;93696.63;4170270;28;20053;-69
2023/12/03 02:25:51;;;;;;;21.63;3.75;;;;;;;16.48;44.23;93707.81;4172203;28;20450;-68
2023/12/03 02:27:53;;;;;;;23.83;3.42;;;;;;;16.48;44.11;93720.22;4170256;28;20091;-70
2023/12/03 02:29:55;;;;;;;21.55;2.88;;;;;;;16.49;44.03;93711.25;4173187;28;20041;-70
2023/12/03 02:31:57;;;;;;;15.65;3.30;;;;;;;16.56;43.88;93720.75;4181084;28;20044;-70
2023/12/03 02:34:02;;;;;;;21.67;3.88;;;;;;;16.61;43.79;93716.63;4171600;28;20054;-68
2023/12/03 02:36:04;;;;;;;15.77;3.53;;;;;;;16.61;43.98;93711.34;4167852;28;20073;-70
2023/12/03 02:38:06;;;;;;;16.75;3.90;;;;;;;16.60;43.97;93713.16;4177339;28;20546;-68
2023/12/03 02:40:08;;;;;;;22.90;3.53;;;;;;;16.53;44.11;93715.88;4175977;28;20484;-70
2023/12/03 02:42:10;;;;;;;20.88;3.38;;;;;;;16.57;43.93;93729.47;4187566;28;20152;-67
2023/12/03 02:44:12;;;;;;;14.80;3.33;;;;;;;16.53;44.31;93705.28;4175558;28;20057;-67
2023/12/03 02:46:14;;;;;;;16.83;3.30;;;;;;;16.55;44.76;93719.09;4175290;28;20049;-67
2023/12/03 02:48:16;;;;;;;22.92;3.90;;;;;;;16.51;45.34;93719.78;4173732;28;20057;-68
2023/12/03 02:50:18;;;;;;;24.45;3.85;;;;;;;16.49;45.00;93719.97;4168263;28;20049;-69
2023/12/03 02:52:20;;;;;;;19.55;3.67;;;;;;;16.48;44.93;93744.00;4158573;28;20077;-69
2023/12/03 02:54:22;;;;;;;23.58;3.05;;;;;;;16.40;44.65;93729.22;4192884;28;20533;-70
2023/12/03 02:56:24;;;;;;;13.80;3.42;;;;;;;16.42;44.72;93724.53;4170715;28;20518;-69
2023/12/03 02:58:26;;;;;;;17.08;3.20;;;;;;;16.44;44.56;93729.63;4176834;28;20053;-69
2023/12/03 03:00:27;;;;;;;22.15;4.10;;;;;;;16.46;44.74;93751.34;4162954;28;20161;-68
2023/12/03 03:02:29;;;;;;;27.23;3.40;;;;;;;16.47;44.67;93737.09;4181455;28;20458;-69
2023/12/03 03:04:31;;;;;;;18.00;3.63;;;;;;;16.48;44.38;93730.78;4173353;28;20048;-67
2023/12/03 03:06:33;;;;;;;21.30;3.20;;;;;;;16.50;44.65;93734.84;4176023;28;20048;-69
2023/12/03 03:08:35;;;;;;;22.00;3.58;;;;;;;16.46;44.69;93727.56;4174639;28;20049;-69
2023/12/03 03:10:37;;;;;;;23.13;3.35;;;;;;;16.42;44.34;93732.47;4175305;28;20052;-69
2023/12/03 03:12:39;;;;;;;18.00;3.75;;;;;;;16.51;45.03;93733.00;4169436;28;20052;-68
2023/12/03 03:14:41;;;;;;;14.70;2.65;;;;;;;16.52;44.80;93756.56;4170943;28;20132;-68
2023/12/03 03:16:43;;;;;;;16.08;2.97;;;;;;;16.53;44.82;93746.78;4176344;28;20128;-67
2023/12/03 03:18:45;;;;;;;17.05;3.15;;;;;;;16.52;44.65;93750.44;4176483;28;20045;-68
2023/12/03 03:20:47;;;;;;;23.83;3.50;;;;;;;16.45;44.63;93744.44;4174075;28;20037;-68
2023/12/03 03:22:49;;;;;;;17.30;3.00;;;;;;;16.45;45.05;93749.72;4165529;28;20056;-67
2023/12/03 03:24:52;;;;;;;20.92;4.03;;;;;;;16.43;45.27;93752.56;4175217;28;20408;-70
2023/12/03 03:26:54;;;;;;;18.92;4.45;;;;;;;16.41;45.22;93736.13;4161655;28;20441;-67
2023/12/03 03:28:56;;;;;;;25.83;4.53;;;;;;;16.38;45.37;93747.16;4166776;28;20049;-67
2023/12/03 03:30:58;;;;;;;22.80;3.70;;;;;;;16.38;45.60;93757.72;4163766;28;20049;-69
2023/12/03 03:33:00;;;;;;;26.02;4.28;;;;;;;16.37;45.87;93764.03;4164847;28;20118;-68
2023/12/03 03:35:03;;;;;;;20.40;3.60;;;;;;;16.35;45.76;93764.25;4170119;28;20053;-69
2023/12/03 03:37:05;;;;;;;18.73;3.45;;;;;;;16.25;46.54;93768.41;4165833;28;20045;-69
2023/12/03 03:39:07;;;;;;;23.17;4.20;;;;;;;16.23;46.73;93783.66;4176572;28;20148;-68
2023/12/03 03:41:09;;;;;;;20.35;3.78;;;;;;;15.97;47.35;93781.00;4176241;28;20415;-68
2023/12/03 03:43:11;;;;;;;23.67;3.83;;;;;;;15.87;47.68;93791.22;4176256;28;20479;-69
2023/12/03 03:45:13;;;;;;;22.08;4.30;;;;;;;15.88;47.82;93803.44;4177402;28;20056;-67
2023/12/03 03:47:15;;;;;;;24.55;3.45;;;;;;;15.62;48.82;93803.56;4176534;28;20131;-66
2023/12/03 03:49:17;;;;;;;26.65;4.50;;;;;;;15.55;48.99;93798.31;4175669;28;20091;-68
2023/12/03 03:51:19;;;;;;;25.42;3.60;;;;;;;15.60;48.48;93795.06;4176420;28;20537;-69
2023/12/03 03:53:21;;;;;;;23.92;4.18;;;;;;;15.51;49.32;93812.97;4172419;28;20085;-69
2023/12/03 03:55:23;;;;;;;23.10;4.30;;;;;;;15.46;49.52;93805.66;4165210;28;20052;-69
2023/12/03 03:57:25;;;;;;;25.65;4.35;;;;;;;15.30;49.89;93819.34;4175024;28;20435;-66
2023/12/03 03:59:27;;;;;;;17.70;3.42;;;;;;;15.42;49.35;93817.66;4169759;28;20388;-68
2023/12/03 04:01:29;;;;;;;24.33;4.07;;;;;;;15.54;48.26;93815.19;4177396;28;20164;-68
2023/12/03 04:03:31;;;;;;;20.05;4.10;;;;;;;15.37;49.73;93828.03;4171038;28;20050;-69
2023/12/03 04:05:33;;;;;;;20.42;4.03;;;;;;;14.94;51.04;93836.50;4171605;28;20061;-69
2023/12/03 04:07:35;;;;;;;26.67;3.72;;;;;;;14.61;51.68;93826.03;4169869;28;20087;-68
2023/12/03 04:09:38;;;;;;;22.67;4.10;;;;;;;14.27;53.06;93830.50;4172804;28;20056;-68
2023/12/03 04:11:41;;;;;;;17.52;3.67;;;;;;;14.17;53.33;93837.97;4176598;28;20057;-68
2023/12/03 04:13:43;;;;;;;21.73;4.07;;;;;;;13.97;53.86;93841.41;4175169;28;20099;-68
2023/12/03 04:15:44;;;;;;;15.18;3.67;;;;;;;13.93;53.93;93846.25;4173942;28;20124;-70
2023/12/03 04:17:46;;;;;;;15.45;4.35;;;;;;;13.90;53.80;93844.03;4167796;28;20106;-68
2023/12/03 04:19:48;;;;;;;22.10;4.30;;;;;;;13.87;54.11;93857.59;4176706;28;20085;-67
2023/12/03 04:21:50;;;;;;;21.92;4.70;;;;;;;13.91;54.13;93852.72;4189927;28;20044;-71
2023/12/03 04:23:52;;;;;;;20.17;3.88;;;;;;;13.73;54.62;93869.09;4169860;28;20056;-68
2023/12/03 04:25:54;;;;;;;19.63;4.43;;;;;;;13.69;54.65;93865.25;4176148;28;20045;-68
2023/12/03 04:27:57;;;;;;;20.45;4.60;;;;;;;13.71;54.58;93876.38;4178124;28;20132;-68
2023/12/03 04:29:58;;;;;;;20.35;3.60;;;;;;;13.76;54.65;93873.16;4170777;28;20056;-68
2023/12/03 04:32:00;;;;;;;19.20;4.28;;;;;;;13.84;54.12;93878.25;4179325;28;20381;-70
2023/12/03 04:34:02;;;;;;;22.58;4.65;;;;;;;13.90;54.02;93878.25;4180227;28;20456;-69
2023/12/03 04:36:07;;;;;;;20.08;4.10;;;;;;;13.77;54.32;93886.13;4188177;28;20431;-67
2023/12/03 04:38:09;;;;;;;27.48;4.07;;;;;;;13.80;54.20;93884.91;4179390;28;20117;-67
2023/12/03 04:40:11;;;;;;;17.90;3.92;;;;;;;13.70;54.78;93891.38;4175879;28;20053;-67
2023/12/03 04:42:13;;;;;;;20.30;4.60;;;;;;;13.64;55.47;93894.00;4164292;28;20136;-68
2023/12/03 04:44:15;;;;;;;17.15;4.00;;;;;;;13.43;57.04;93911.50;4164752;28;20057;-67
2023/12/03 04:46:17;;;;;;;20.65;4.00;;;;;;;13.27;57.84;93917.06;4175048;28;20052;-68
2023/12/03 04:48:19;;;;;;;22.15;4.55;;;;;;;13.05;58.11;93905.81;4178350;28;20044;-69
2023/12/03 04:50:21;;;;;;;19.45;4.60;;;;;;;12.99;58.10;93920.56;4173998;28;20072;-66
2023/12/03 04:52:22;;;;;;;19.65;4.63;;;;;;;12.83;58.41;93941.88;4173504;28;20045;-69
2023/12/03 04:54:24;;;;;;;21.17;4.40;;;;;;;12.64;58.42;93936.25;4178554;28;20049;-67
2023/12/03 04:56:26;;;;;;;19.95;4.43;;;;;;;12.63;58.94;93939.09;4179764;28;20494;-69
2023/12/03 04:58:28;;;;;;;21.55;4.22;;;;;;;12.70;58.53;93939.97;4174083;28;20049;-68
2023/12/03 05:00:30;;;;;;;23.83;4.00;;;;;;;12.64;58.39;93949.41;4175164;28;20060;-68
2023/12/03 05:02:32;;;;;;;17.75;3.85;;;;;;;12.65;58.41;93958.94;4177642;28;20483;-69
2023/12/03 05:04:34;;;;;;;19.48;4.05;;;;;;;12.72;58.11;93964.22;4173703;28;20060;-67
2023/12/03 05:06:35;;;;;;;18.92;4.60;;;;;;;12.88;58.14;93963.13;4175281;28;20437;-67
2023/12/03 05:08:38;;;;;;;16.65;3.15;;;;;;;12.87;58.62;93972.03;4177091;28;20094;-67
2023/12/03 05:10:39;;;;;;;13.40;3.35;;;;;;;12.98;58.97;93970.69;4177308;28;20394;-69
2023/12/03 05:12:41;;;;;;;17.48;3.47;;;;;;;12.98;59.95;93983.84;4176852;28;20134;-68
2023/12/03 05:14:43;;;;;;;17.65;3.80;;;;;;;12.98;60.12;93982.00;4176441;28;20049;-69
2023/12/03 05:16:45;;;;;;;18.75;3.38;;;;;;;13.02;60.09;93983.25;4178932;28;20057;-70
2023/12/03 05:18:48;;;;;;;14.10;4.45;;;;;;;13.04;60.44;93981.25;4173696;28;20448;-68
2023/12/03 05:20:50;;;;;;;14.90;3.70;;;;;;;13.02;61.12;93988.53;4174657;28;20053;-70
2023/12/03 05:22:53;;;;;;;15.00;3.92;;;;;;;13.04;61.03;93983.09;4176295;28;20127;-69
2023/12/03 05:24:55;;;;;;;16.40;3.58;;;;;;;13.11;61.25;93981.31;4163458;28;20041;-68
2023/12/03 05:26:57;;;;;;;17.05;3.88;;;;;;;13.21;61.35;93979.16;4162428;28;20103;-70
2023/12/03 05:28:58;;;;;;;11.13;3.45;;;;;;;13.34;60.95;93969.75;4168646;28;20071;-69
2023/12/03 05:31:00;;;;;;;13.07;3.53;;;;;;;13.40;60.95;93977.69;4175344;28;20447;-71
2023/12/03 05:33:02;;;;;;;13.30;3.33;;;;;;;13.47;60.62;93983.78;4176805;28;20095;-68
2023/12/03 05:35:04;;;;;;;15.98;3.40;;;;;;;13.49;60.58;93976.50;4173817;28;20052;-70
2023/12/03 05:37:06;;;;;;;14.30;3.47;;;;;;;13.36;61.34;93989.59;4194053;28;20107;-70
2023/12/03 05:39:08;;;;;;;18.25;3.53;;;;;;;13.17;61.72;93996.31;4178833;28;20415;-69
2023/12/03 05:41:10;;;;;;;14.35;3.67;;;;;;;13.01;62.34;93991.34;4178725;28;20420;-69
2023/12/03 05:43:13;;;;;;;14.10;3.50;;;;;;;12.92;62.48;93990.66;4163999;28;20123;-69
2023/12/03 05:45:15;;;;;;;30.98;12.63;;;;;;;12.88;63.00;93981.53;4163734;28;20130;-68
2023/12/03 05:47:17;;;;;;;23.63;7.85;;;;;;;12.93;62.94;93987.03;4163630;28;20057;-70
2023/12/03 05:49:19;;;;;;;26.15;8.73;;;;;;;13.01;62.46;93986.88;4168847;28;20110;-69
2023/12/03 05:51:21;;;;;;;15.77;4.57;;;;;;;13.02;61.82;93993.78;4169826;28;20041;-68
2023/12/03 05:53:23;;;;;;;14.40;3.80;;;;;;;12.87;62.44;94003.56;4175724;28;20123;-70
2023/12/03 05:55:25;;;;;;;19.63;4.53;;;;;;;12.98;62.26;94008.31;4178951;28;20056;-69
2023/12/03 05:57:27;;;;;;;17.70;4.82;;;;;;;13.11;62.06;94013.66;4172086;28;20467;-67
2023/12/03 05:59:29;;;;;;;15.70;4.78;;;;;;;13.21;61.62;94007.28;4173906;28;20056;-68
2023/12/03 06:01:31;;;;;;;14.32;4.90;;;;;;;13.32;61.90;94014.66;4174135;28;20116;-69
2023/12/03 06:03:33;;;;;;;14.55;4.53;;;;;;;13.41;61.64;94020.56;4173041;28;20049;-67
2023/12/03 06:05:36;;;;;;;15.82;5.20;;;;;;;13.52;61.47;94027.94;4173563;28;20459;-70
2023/12/03 06:07:38;;;;;;;18.63;5.22;;;;;;;13.63;61.08;94026.56;4177407;28;20049;-67
2023/12/03 06:09:40;;;;;;;14.95;4.25;;;;;;;13.65;61.33;94033.25;4178300;28;20056;-69
2023/12/03 06:11:42;;;;;;;15.52;4.60;;;;;;;13.72;61.01;94035.94;4178169;28;20044;-67
2023/12/03 06:13:44;;;;;;;18.35;5.45;;;;;;;13.80;60.76;94048.94;4179476;28;20088;-69
2023/12/03 06:15:46;;;;;;;19.20;4.75;;;;;;;13.83;60.61;94050.34;4177077;28;20087;-68
2023/12/03 06:17:48;;;;;;;18.08;4.28;;;;;;;13.87;60.35;94048.97;4178095;28;20076;-70
2023/12/03 06:19:49;;;;;;;16.65;4.32;;;;;;;13.85;59.98;94045.72;4171640;28;20643;-69
2023/12/03 06:21:52;;;;;;;20.13;4.35;;;;;;;13.87;59.96;94041.06;4168629;28;20045;-70
2023/12/03 06:23:54;;;;;;;18.75;4.63;;;;;;;13.88;60.41;94050.59;4169915;28;20055;-70
2023/12/03 06:25:55;;;;;;;12.18;4.43;;;;;;;13.97;59.79;94057.31;4178313;28;20124;-69
2023/12/03 06:27:57;;;;;;;20.88;4.70;;;;;;;13.98;59.73;94058.13;4175728;28;20172;-69
2023/12/03 06:29:59;;;;;;;17.40;3.83;;;;;;;13.96;59.09;94068.03;4177187;28;20128;-69
2023/12/03 06:32:01;;;;;;;11.55;4.07;;;;;;;13.95;58.99;94061.16;4173668;28;20095;-69
2023/12/03 06:34:03;;;;;;;14.70;4.32;;;;;;;13.98;59.40;94058.97;4167712;28;20073;-69
2023/12/03 06:36:06;;;;;;;20.75;5.03;;;;;;;14.05;59.18;94072.16;4173950;28;20056;-70
2023/12/03 06:38:08;;;;;;;18.42;4.32;;;;;;;14.09;59.14;94071.56;4175364;28;20055;-69
2023/12/03 06:40:10;;;;;;;17.33;5.07;;;;;;;14.13;58.99;94077.25;4177298;28;20476;-72
2023/12/03 06:42:12;;;;;;;17.13;4.15;;;;;;;14.13;59.16;94077.25;4160560;28;20060;-68
2023/12/03 06:44:14;;;;;;;14.05;4.30;;;;;;;14.13;59.18;94080.72;4160097;28;20045;-70
2023/12/03 06:46:22;;;;;;;15.60;3.92;;;;;;;14.16;58.96;94090.03;4174352;28;20057;-70
2023/12/03 06:48:24;;;;;;;18.33;4.40;;;;;;;14.09;59.57;94090.00;4173511;28;20049;-70
2023/12/03 06:50:25;;;;;;;15.02;4.93;;;;;;;14.10;59.81;94106.63;4168864;28;20055;-70
2023/12/03 06:52:28;;;;;;;17.40;4.50;;;;;;;14.08;60.47;94103.38;4171459;28;20583;-69
2023/12/03 06:54:30;;;;;;;20.58;5.05;;;;;;;14.06;60.83;94100.09;4173288;28;20049;-67
2023/12/03 06:56:32;;;;;;;17.08;4.43;;;;;;;14.08;61.25;94106.81;4176735;28;20552;-69
2023/12/03 06:58:33;;;;;;;22.08;5.13;;;;;;;14.02;61.65;94094.41;4177751;28;20045;-68
2023/12/03 07:00:35;;;;;;;17.40;4.80;;;;;;;14.01;61.69;94100.69;4178456;28;20076;-70
2023/12/03 07:02:37;;;;;;;11.63;4.55;;;;;;;13.96;62.44;94102.28;4172928;28;20098;-69
2023/12/03 07:04:39;;;;;;;19.33;4.68;;;;;;;13.84;63.02;94104.66;4170138;28;20389;-70
2023/12/03 07:06:41;;;;;;;15.20;4.07;;;;;;;13.80;63.03;94117.38;4177277;28;20053;-69
2023/12/03 07:08:44;;;;;;;16.65;4.18;;;;;;;13.75;63.71;94126.88;4178125;28;20055;-69
2023/12/03 07:10:49;;;;;;;17.02;4.90;;;;;;;13.75;64.71;94129.50;4165473;28;20132;-70
2023/12/03 07:12:51;;;;;;;17.70;5.38;;;;;;;13.71;64.75;94129.06;4176130;28;20044;-69
2023/12/03 07:14:53;;;;;;;23.08;5.22;;;;;;;13.70;65.86;94143.22;4177228;28;20079;-70
2023/12/03 07:16:55;;;;;;;16.55;5.68;;;;;;;13.69;65.59;94137.16;4178196;28;20049;-70
2023/12/03 07:18:57;;;;;;;18.25;5.10;;;;;;;13.62;66.11;94141.56;4171496;28;20408;-71
2023/12/03 07:20:59;;;;;;;19.60;5.95;;;;;;;13.59;66.79;94138.50;4172738;28;20093;-70
2023/12/03 07:23:01;;;;;;;15.55;5.35;;;;;;;13.61;66.99;94144.38;4171388;28;20053;-69
2023/12/03 07:25:04;;;;;;;12.98;5.30;;;;;;;13.60;67.13;94146.22;4172704;28;20431;-70
2023/12/03 07:27:06;;;;;;;19.02;5.65;;;;;;;13.54;67.80;94138.25;4174989;28;20053;-69
2023/12/03 07:29:07;;;;;;;17.00;6.10;;;;;;;13.52;67.27;94147.16;4173390;28;20080;-69
2023/12/03 07:31:09;;;;;;;20.63;6.80;;;;;;;13.48;67.99;94156.41;4171855;28;20050;-68
2023/12/03 07:33:11;;;;;;;22.65;5.97;;;;;;;13.38;68.64;94157.75;4178285;28;20053;-68
2023/12/03 07:35:13;;;;;;;19.55;6.65;;;;;;;13.38;68.81;94161.22;4176549;28;20165;-70
2023/12/03 07:37:15;;;;;;;18.80;6.65;;;;;;;13.32;69.05;94161.97;4178658;28;20051;-71
2023/12/03 07:39:18;;;;;;;22.25;6.53;;;;;;;13.35;69.21;94166.03;4177139;28;20057;-70
2023/12/03 07:41:19;;;;;;;18.00;6.15;;;;;;;13.35;69.47;94172.09;4178080;28;20049;-72
2023/12/03 07:43:21;;;;;;;17.25;6.78;;;;;;;13.32;70.13;94180.38;4164064;28;20053;-70
2023/12/03 07:45:23;;;;;;;20.13;6.82;;;;;;;13.25;70.04;94177.66;4161677;28;20049;-71
2023/12/03 07:47:25;;;;;;;16.33;7.00;;;;;;;13.22;70.17;94191.16;4171685;28;20053;-70
2023/12/03 07:49:27;;;;;;;25.73;8.82;;;;;;;12.97;71.04;94195.16;4171947;28;20052;-72
2023/12/03 07:51:30;;;;;;;24.45;8.65;;;;;;;12.60;72.65;94215.34;4177621;28;20084;-70
2023/12/03 07:53:32;;;;;;;23.50;7.72;;;;;;;12.44;73.22;94211.13;4175998;28;20620;-70
2023/12/03 07:55:34;;;;;;;18.75;7.35;;;;;;;12.31;73.24;94222.28;4177072;28;20046;-71
2023/12/03 07:57:36;;;;;;;19.20;7.32;;;;;;;11.95;73.30;94219.53;4175431;28;20052;-70
2023/12/03 07:59:38;;;;;;;15.80;6.82;;;;;;;11.38;74.50;94232.09;4177211;28;20045;-69
2023/12/03 08:01:41;;;;;;;17.35;7.55;;;;;;;11.42;75.50;94237.81;4165438;28;20484;-70
2023/12/03 08:03:43;;;;;;;12.23;6.15;;;;;;;11.33;75.49;94234.44;4166082;28;20049;-70
2023/12/03 08:05:45;;;;;;;18.20;7.45;;;;;;;10.99;76.03;94229.56;4175312;28;20052;-69
2023/12/03 08:07:47;;;;;;;12.98;7.20;;;;;;;10.65;76.32;94251.69;4168630;28;20471;-69
2023/12/03 08:09:51;;;;;;;14.82;6.45;;;;;;;10.62;76.84;94262.50;4179179;28;20056;-68
2023/12/03 08:11:53;;;;;;;11.68;6.57;;;;;;;10.59;75.31;94262.84;4174154;28;20460;-72
2023/12/03 08:13:55;;;;;;;12.63;7.05;;;;;;;10.63;75.57;94270.19;4177137;28;20049;-70
2023/12/03 08:15:57;;;;;;;10.43;7.50;;;;;;;10.74;76.05;94266.38;4171751;28;20056;-69
2023/12/03 08:17:59;;;;;;;13.88;9.80;;;;;;;10.58;75.57;94267.28;4171503;28;20049;-69
2023/12/03 08:20:01;;;;;;;20.25;13.30;;;;;;;9.80;77.76;94267.91;4168318;28;20555;-69
2023/12/03 08:22:03;;;;;;;26.73;13.43;;;;;;;9.67;79.28;94281.47;4181134;28;20110;-71
2023/12/03 08:24:05;;;;;;;18.92;12.90;;;;;;;9.71;79.30;94287.19;4170556;28;20050;-71
2023/12/03 08:26:07;;;;;;;17.83;11.75;;;;;;;9.54;79.18;94295.03;4177797;28;20065;-70
2023/12/03 08:28:10;;;;;;;15.05;10.65;;;;;;;8.98;80.94;94313.06;4179143;28;20127;-71
2023/12/03 08:30:12;;;;;;;14.25;10.82;;;;;;;8.51;82.56;94295.25;4172349;28;20057;-70
2023/12/03 08:32:14;;;;;;;15.10;10.93;;;;;;;8.32;82.99;94316.31;4164586;28;20045;-72
2023/12/03 08:34:17;;;;;;;13.63;10.65;;;;;;;7.98;82.73;94301.47;4165846;28;20057;-69
2023/12/03 08:36:19;;;;;;;15.45;12.55;;;;;;;7.93;83.65;94298.47;4170648;28;20056;-70
2023/12/03 08:38:22;;;;;;;25.63;18.55;;;;;;;7.79;83.55;94292.03;4170530;28;20056;-69
2023/12/03 08:40:24;;;;;;;29.15;20.48;;;;;;;7.72;84.01;94296.19;4173884;28;20053;-71
2023/12/03 08:42:27;;;;;;;23.85;18.92;;;;;;;7.46;84.49;94298.75;4170995;28;20045;-70
2023/12/03 08:44:29;;;;;;;22.35;17.17;;;;;;;7.43;83.99;94307.72;4175106;28;20049;-71
2023/12/03 08:46:31;;;;;;;21.38;16.73;;;;;;;7.27;83.82;94312.75;4162123;28;20054;-70
2023/12/03 08:48:34;;;;;;;25.92;19.40;;;;;;;7.00;83.52;94313.63;4169484;28;20204;-69
2023/12/03 08:50:38;;;;;;;26.52;19.27;;;;;;;6.88;84.35;94313.84;4168787;28;20292;-69
2023/12/03 08:52:39;;;;;;;;;;;;;;;7.05;85.08;94314.81;4179810;28;20118;-70
2023/12/03 08:54:43;;;;;;;21.08;16.08;;;;;;;6.94;84.00;94321.06;4174224;28;19920;-70
2023/12/03 08:56:45;;;;;;;19.48;15.50;;;;;;;6.88;83.66;94311.25;4179417;28;20045;-68
2023/12/03 08:58:50;;;;;;;18.85;14.68;;;;;;;6.89;83.76;94318.06;4177917;28;20507;-71
2023/12/03 09:00:52;;;;;;;16.45;11.82;;;;;;;6.94;82.56;94308.03;4177973;28;20045;-71
2023/12/03 09:02:55;;;;;;;17.42;13.63;;;;;;;7.02;82.77;94302.09;4177304;28;20089;-73
2023/12/03 09:04:59;;;;;;;14.63;12.15;;;;;;;7.34;82.09;94313.81;4174901;28;20045;-70
2023/12/03 09:07:02;;;;;;;14.15;11.63;;;;;;;7.61;80.93;94312.91;4180370;28;20049;-71
2023/12/03 09:09:04;;;;;;;13.75;10.70;;;;;;;7.88;79.91;94316.38;4175465;28;20135;-70
2023/12/03 09:11:09;;;;;;;15.15;10.48;;;;;;;7.93;77.26;94327.16;4178870;28;20136;-71
2023/12/03 09:13:11;;;;;;;14.77;11.30;;;;;;;8.02;77.40;94328.84;4179894;28;20142;-70
2023/12/03 09:15:14;;;;;;;11.90;10.40;;;;;;;8.03;76.15;94325.28;4179605;28;20057;-74
2023/12/03 09:17:16;;;;;;;13.32;11.50;;;;;;;8.18;76.52;94328.97;4165294;28;20053;-70
2023/12/03 09:19:20;;;;;;;14.88;11.23;;;;;;;8.23;76.30;94349.38;4175938;28;20135;-71
2023/12/03 09:21:23;;;;;;;12.23;10.38;;;;;;;8.34;76.12;94356.94;4173314;28;20504;-71
2023/12/03 09:23:28;;;;;;;17.20;11.80;;;;;;;8.25;75.37;94357.06;4172562;28;20133;-70
2023/12/03 09:25:30;;;;;;;14.60;11.57;;;;;;;8.14;75.61;94356.34;4173149;28;20049;-70
2023/12/03 09:27:33;;;;;;;14.10;11.15;;;;;;;8.06;76.10;94358.88;4191440;28;20047;-71